Terminal Aerodrome Forecast
Issued by NWS Northern Indiana

Home | Current Version | Previous Version | Graphics & Text | Print | Product List | Glossary On
Versions: 1 2 3 4 5 6 7 8 9 10 11 12 13 14 15 16 17
000
FTUS43 KIWX 162300
TAFFWA
TAF
KFWA 162336Z 1700/1724 26013G22KT 5SM -RA BR OVC009
      TEMPO 1700/1702 3SM -DZ BR OVC006
     FM170300 27014G21KT P6SM OVC015
     FM171000 27013G20KT P6SM BKN025=

USA.gov is the U.S. government's official web portal to all federal, state and local government web resources and services.